sensor_id;sensor_type;location;lat;lon;timestamp;temperature;humidity
52073;DHT22;38074;51.232;6.826;2022-07-06T00:05:51;26.20;46.90
52073;DHT22;38074;51.232;6.826;2022-07-06T00:13:07;26.20;46.80
52073;DHT22;38074;51.232;6.826;2022-07-06T00:20:22;26.20;46.60
52073;DHT22;38074;51.232;6.826;2022-07-06T00:27:38;26.20;46.70
52073;DHT22;38074;51.232;6.826;2022-07-06T00:34:53;26.20;46.60
52073;DHT22;38074;51.232;6.826;2022-07-06T00:42:09;26.20;46.50
52073;DHT22;38074;51.232;6.826;2022-07-06T00:49:25;26.20;46.50
52073;DHT22;38074;51.232;6.826;2022-07-06T00:56:59;26.20;46.30
52073;DHT22;38074;51.232;6.826;2022-07-06T01:04:15;26.20;46.30
52073;DHT22;38074;51.232;6.826;2022-07-06T01:11:30;26.10;46.10
52073;DHT22;38074;51.232;6.826;2022-07-06T01:18:46;26.20;46.20
52073;DHT22;38074;51.232;6.826;2022-07-06T01:26:02;26.10;46.10
52073;DHT22;38074;51.232;6.826;2022-07-06T01:33:17;26.20;45.90
52073;DHT22;38074;51.232;6.826;2022-07-06T01:40:33;26.10;46.00
52073;DHT22;38074;51.232;6.826;2022-07-06T01:47:48;26.10;45.70
52073;DHT22;38074;51.232;6.826;2022-07-06T01:55:04;26.20;45.90
52073;DHT22;38074;51.232;6.826;2022-07-06T02:02:20;26.10;45.70
52073;DHT22;38074;51.232;6.826;2022-07-06T02:09:36;26.10;45.50
52073;DHT22;38074;51.232;6.826;2022-07-06T02:16:51;26.10;45.60
52073;DHT22;38074;51.232;6.826;2022-07-06T02:24:07;26.10;45.60
52073;DHT22;38074;51.232;6.826;2022-07-06T02:31:22;26.10;45.50
52073;DHT22;38074;51.232;6.826;2022-07-06T02:38:38;26.10;45.40
52073;DHT22;38074;51.232;6.826;2022-07-06T02:45:53;26.10;45.20
52073;DHT22;38074;51.232;6.826;2022-07-06T02:53:09;26.10;45.30
52073;DHT22;38074;51.232;6.826;2022-07-06T03:00:25;26.10;45.30
52073;DHT22;38074;51.232;6.826;2022-07-06T03:07:40;26.20;45.50
52073;DHT22;38074;51.232;6.826;2022-07-06T03:14:56;26.10;45.40
52073;DHT22;38074;51.232;6.826;2022-07-06T03:22:11;26.10;45.30
52073;DHT22;38074;51.232;6.826;2022-07-06T03:29:27;26.10;45.30
52073;DHT22;38074;51.232;6.826;2022-07-06T03:36:43;26.10;45.30
52073;DHT22;38074;51.232;6.826;2022-07-06T03:43:58;26.10;45.10
52073;DHT22;38074;51.232;6.826;2022-07-06T03:51:14;26.10;45.10
52073;DHT22;38074;51.232;6.826;2022-07-06T03:58:30;26.10;45.30
52073;DHT22;38074;51.232;6.826;2022-07-06T04:05:45;26.10;45.10
52073;DHT22;38074;51.232;6.826;2022-07-06T04:13:01;26.10;45.00
52073;DHT22;38074;51.232;6.826;2022-07-06T04:20:17;26.10;45.00
52073;DHT22;38074;51.232;6.826;2022-07-06T04:27:32;26.10;44.90
52073;DHT22;38074;51.232;6.826;2022-07-06T04:34:48;26.10;44.90
52073;DHT22;38074;51.232;6.826;2022-07-06T04:42:04;26.10;44.80
52073;DHT22;38074;51.232;6.826;2022-07-06T04:49:20;26.10;45.00
52073;DHT22;38074;51.232;6.826;2022-07-06T04:56:35;26.10;45.00
52073;DHT22;38074;51.232;6.826;2022-07-06T05:03:51;26.10;44.80
52073;DHT22;38074;51.232;6.826;2022-07-06T05:11:06;26.10;44.90
52073;DHT22;38074;51.232;6.826;2022-07-06T05:18:22;26.10;44.50
52073;DHT22;38074;51.232;6.826;2022-07-06T05:25:37;26.10;43.90
52073;DHT22;38074;51.232;6.826;2022-07-06T05:32:53;26.00;44.00
52073;DHT22;38074;51.232;6.826;2022-07-06T05:40:09;26.00;43.60
52073;DHT22;38074;51.232;6.826;2022-07-06T05:47:25;26.00;44.20
52073;DHT22;38074;51.232;6.826;2022-07-06T05:54:59;26.00;43.50
52073;DHT22;38074;51.232;6.826;2022-07-06T06:02:15;26.00;43.10
52073;DHT22;38074;51.232;6.826;2022-07-06T06:09:30;26.00;43.20
52073;DHT22;38074;51.232;6.826;2022-07-06T06:16:46;26.00;42.90
52073;DHT22;38074;51.232;6.826;2022-07-06T06:24:02;26.00;43.20
52073;DHT22;38074;51.232;6.826;2022-07-06T06:31:17;26.10;43.50
52073;DHT22;38074;51.232;6.826;2022-07-06T06:38:33;26.10;43.80
52073;DHT22;38074;51.232;6.826;2022-07-06T06:45:52;26.10;43.60
52073;DHT22;38074;51.232;6.826;2022-07-06T06:53:08;26.10;43.70
52073;DHT22;38074;51.232;6.826;2022-07-06T07:00:23;26.10;43.70
52073;DHT22;38074;51.232;6.826;2022-07-06T07:07:39;26.10;43.60
52073;DHT22;38074;51.232;6.826;2022-07-06T07:14:55;26.10;43.40
52073;DHT22;38074;51.232;6.826;2022-07-06T07:22:10;26.10;43.40
52073;DHT22;38074;51.232;6.826;2022-07-06T07:29:26;26.10;43.40
52073;DHT22;38074;51.232;6.826;2022-07-06T07:36:41;26.10;43.40
52073;DHT22;38074;51.232;6.826;2022-07-06T07:43:57;26.10;43.20
52073;DHT22;38074;51.232;6.826;2022-07-06T07:51:12;26.10;43.30
52073;DHT22;38074;51.232;6.826;2022-07-06T07:58:28;26.10;43.20
52073;DHT22;38074;51.232;6.826;2022-07-06T08:05:43;26.10;43.20
52073;DHT22;38074;51.232;6.826;2022-07-06T08:12:59;26.10;43.20
52073;DHT22;38074;51.232;6.826;2022-07-06T08:20:14;26.10;43.20
52073;DHT22;38074;51.232;6.826;2022-07-06T08:27:30;26.10;43.20
52073;DHT22;38074;51.232;6.826;2022-07-06T08:34:46;26.10;42.90
52073;DHT22;38074;51.232;6.826;2022-07-06T08:42:02;26.10;43.10
52073;DHT22;38074;51.232;6.826;2022-07-06T08:49:19;26.10;43.10
52073;DHT22;38074;51.232;6.826;2022-07-06T08:56:35;26.10;43.10
52073;DHT22;38074;51.232;6.826;2022-07-06T09:03:51;26.10;43.00
52073;DHT22;38074;51.232;6.826;2022-07-06T09:11:07;26.10;43.00
52073;DHT22;38074;51.232;6.826;2022-07-06T09:18:23;26.10;42.70
52073;DHT22;38074;51.232;6.826;2022-07-06T09:25:38;26.10;42.70
52073;DHT22;38074;51.232;6.826;2022-07-06T09:32:58;26.10;42.80
52073;DHT22;38074;51.232;6.826;2022-07-06T09:40:17;26.10;42.70
52073;DHT22;38074;51.232;6.826;2022-07-06T09:47:34;26.10;42.70
52073;DHT22;38074;51.232;6.826;2022-07-06T09:54:50;26.10;42.50
52073;DHT22;38074;51.232;6.826;2022-07-06T10:02:07;26.10;42.60
52073;DHT22;38074;51.232;6.826;2022-07-06T10:09:25;26.10;42.30
52073;DHT22;38074;51.232;6.826;2022-07-06T10:16:41;26.10;42.20
52073;DHT22;38074;51.232;6.826;2022-07-06T10:23:56;26.10;41.90
52073;DHT22;38074;51.232;6.826;2022-07-06T10:31:16;26.10;41.30
52073;DHT22;38074;51.232;6.826;2022-07-06T10:38:34;26.10;42.10
52073;DHT22;38074;51.232;6.826;2022-07-06T10:45:51;26.10;41.90
52073;DHT22;38074;51.232;6.826;2022-07-06T10:53:14;26.10;41.30
52073;DHT22;38074;51.232;6.826;2022-07-06T11:00:50;26.10;41.60
52073;DHT22;38074;51.232;6.826;2022-07-06T11:08:09;26.10;40.70
52073;DHT22;38074;51.232;6.826;2022-07-06T11:15:46;26.10;41.70
52073;DHT22;38074;51.232;6.826;2022-07-06T11:23:02;26.00;41.50
52073;DHT22;38074;51.232;6.826;2022-07-06T11:30:17;26.10;41.50
52073;DHT22;38074;51.232;6.826;2022-07-06T11:37:33;26.10;41.30
52073;DHT22;38074;51.232;6.826;2022-07-06T11:44:49;26.00;41.10
52073;DHT22;38074;51.232;6.826;2022-07-06T11:52:09;26.10;41.40
52073;DHT22;38074;51.232;6.826;2022-07-06T12:06:45;26.10;41.50
52073;DHT22;38074;51.232;6.826;2022-07-06T12:14:02;26.10;41.50
52073;DHT22;38074;51.232;6.826;2022-07-06T12:21:19;26.10;41.30
52073;DHT22;38074;51.232;6.826;2022-07-06T12:28:37;26.10;41.40
52073;DHT22;38074;51.232;6.826;2022-07-06T12:35:52;26.10;40.90
52073;DHT22;38074;51.232;6.826;2022-07-06T12:43:08;26.10;41.20
52073;DHT22;38074;51.232;6.826;2022-07-06T12:50:31;26.10;41.20
52073;DHT22;38074;51.232;6.826;2022-07-06T12:57:48;26.10;41.40
52073;DHT22;38074;51.232;6.826;2022-07-06T13:05:08;26.10;41.30
52073;DHT22;38074;51.232;6.826;2022-07-06T13:12:25;26.10;41.10
52073;DHT22;38074;51.232;6.826;2022-07-06T13:19:40;26.10;41.20
52073;DHT22;38074;51.232;6.826;2022-07-06T13:26:56;26.10;41.10
52073;DHT22;38074;51.232;6.826;2022-07-06T13:34:12;26.10;41.20
52073;DHT22;38074;51.232;6.826;2022-07-06T13:41:28;26.10;41.00
52073;DHT22;38074;51.232;6.826;2022-07-06T13:48:44;26.10;41.30
52073;DHT22;38074;51.232;6.826;2022-07-06T13:56:00;26.10;41.30
52073;DHT22;38074;51.232;6.826;2022-07-06T14:03:16;26.10;41.40
52073;DHT22;38074;51.232;6.826;2022-07-06T14:10:31;26.10;41.30
52073;DHT22;38074;51.232;6.826;2022-07-06T14:17:47;26.10;41.30
52073;DHT22;38074;51.232;6.826;2022-07-06T14:25:03;26.10;41.10
52073;DHT22;38074;51.232;6.826;2022-07-06T14:32:20;26.10;41.00
52073;DHT22;38074;51.232;6.826;2022-07-06T14:39:36;26.10;41.10
52073;DHT22;38074;51.232;6.826;2022-07-06T14:46:52;26.10;40.90
52073;DHT22;38074;51.232;6.826;2022-07-06T14:54:07;26.10;40.90
52073;DHT22;38074;51.232;6.826;2022-07-06T15:01:23;26.10;41.00
52073;DHT22;38074;51.232;6.826;2022-07-06T15:08:40;26.10;40.90
52073;DHT22;38074;51.232;6.826;2022-07-06T15:15:55;26.10;41.20
52073;DHT22;38074;51.232;6.826;2022-07-06T15:23:11;26.10;41.10
52073;DHT22;38074;51.232;6.826;2022-07-06T15:30:26;26.10;40.80
52073;DHT22;38074;51.232;6.826;2022-07-06T15:37:44;26.10;40.90
52073;DHT22;38074;51.232;6.826;2022-07-06T15:44:59;26.10;41.70
52073;DHT22;38074;51.232;6.826;2022-07-06T15:52:15;26.10;40.90
52073;DHT22;38074;51.232;6.826;2022-07-06T15:59:31;26.10;41.10
52073;DHT22;38074;51.232;6.826;2022-07-06T16:06:47;26.10;41.10
52073;DHT22;38074;51.232;6.826;2022-07-06T16:14:02;26.10;41.10
52073;DHT22;38074;51.232;6.826;2022-07-06T16:21:18;26.10;41.00
52073;DHT22;38074;51.232;6.826;2022-07-06T16:28:35;26.10;41.00
52073;DHT22;38074;51.232;6.826;2022-07-06T16:35:50;26.10;40.80
52073;DHT22;38074;51.232;6.826;2022-07-06T16:43:06;26.10;40.50
52073;DHT22;38074;51.232;6.826;2022-07-06T16:50:22;26.10;40.60
52073;DHT22;38074;51.232;6.826;2022-07-06T16:57:38;26.10;40.50
52073;DHT22;38074;51.232;6.826;2022-07-06T17:04:54;26.10;40.30
52073;DHT22;38074;51.232;6.826;2022-07-06T17:12:09;26.10;40.20
52073;DHT22;38074;51.232;6.826;2022-07-06T17:19:25;26.10;41.00
52073;DHT22;38074;51.232;6.826;2022-07-06T17:26:41;26.10;40.60
52073;DHT22;38074;51.232;6.826;2022-07-06T17:33:57;26.10;40.70
52073;DHT22;38074;51.232;6.826;2022-07-06T17:41:12;26.10;41.40
52073;DHT22;38074;51.232;6.826;2022-07-06T17:48:28;26.10;40.90
52073;DHT22;38074;51.232;6.826;2022-07-06T17:55:44;26.10;40.90
52073;DHT22;38074;51.232;6.826;2022-07-06T18:03:02;26.10;40.80
52073;DHT22;38074;51.232;6.826;2022-07-06T18:10:18;26.10;40.70
52073;DHT22;38074;51.232;6.826;2022-07-06T18:17:34;26.10;40.30
52073;DHT22;38074;51.232;6.826;2022-07-06T18:24:49;26.00;39.80
52073;DHT22;38074;51.232;6.826;2022-07-06T18:32:06;26.00;40.40
52073;DHT22;38074;51.232;6.826;2022-07-06T18:39:22;26.00;40.10
52073;DHT22;38074;51.232;6.826;2022-07-06T18:46:37;25.70;39.80
52073;DHT22;38074;51.232;6.826;2022-07-06T18:53:53;25.60;39.90
52073;DHT22;38074;51.232;6.826;2022-07-06T19:01:09;25.40;40.20
52073;DHT22;38074;51.232;6.826;2022-07-06T19:08:24;25.30;40.60
52073;DHT22;38074;51.232;6.826;2022-07-06T19:15:40;25.40;40.50
52073;DHT22;38074;51.232;6.826;2022-07-06T19:22:56;25.40;40.90
52073;DHT22;38074;51.232;6.826;2022-07-06T19:30:12;25.30;40.30
52073;DHT22;38074;51.232;6.826;2022-07-06T19:37:28;25.20;40.60
52073;DHT22;38074;51.232;6.826;2022-07-06T19:44:44;25.20;41.40
52073;DHT22;38074;51.232;6.826;2022-07-06T19:52:00;25.30;41.80
52073;DHT22;38074;51.232;6.826;2022-07-06T19:59:15;25.50;42.10
52073;DHT22;38074;51.232;6.826;2022-07-06T20:06:31;25.70;41.70
52073;DHT22;38074;51.232;6.826;2022-07-06T20:13:48;25.70;42.20
52073;DHT22;38074;51.232;6.826;2022-07-06T20:21:03;25.80;41.80
52073;DHT22;38074;51.232;6.826;2022-07-06T20:28:19;25.80;41.70
52073;DHT22;38074;51.232;6.826;2022-07-06T20:35:35;25.80;41.70
52073;DHT22;38074;51.232;6.826;2022-07-06T20:42:51;25.90;41.80
52073;DHT22;38074;51.232;6.826;2022-07-06T20:50:07;25.90;41.90
52073;DHT22;38074;51.232;6.826;2022-07-06T20:57:23;25.90;41.90
52073;DHT22;38074;51.232;6.826;2022-07-06T21:04:39;25.90;42.00
52073;DHT22;38074;51.232;6.826;2022-07-06T21:11:55;25.90;42.20
52073;DHT22;38074;51.232;6.826;2022-07-06T21:19:10;25.90;42.30
52073;DHT22;38074;51.232;6.826;2022-07-06T21:26:26;26.00;42.40
52073;DHT22;38074;51.232;6.826;2022-07-06T21:33:42;26.00;42.50
52073;DHT22;38074;51.232;6.826;2022-07-06T21:40:57;26.00;42.70
52073;DHT22;38074;51.232;6.826;2022-07-06T21:48:13;26.00;42.70
52073;DHT22;38074;51.232;6.826;2022-07-06T21:55:29;26.00;42.70
52073;DHT22;38074;51.232;6.826;2022-07-06T22:02:45;26.00;43.00
52073;DHT22;38074;51.232;6.826;2022-07-06T22:10:00;26.00;43.10
52073;DHT22;38074;51.232;6.826;2022-07-06T22:17:16;26.00;43.30
52073;DHT22;38074;51.232;6.826;2022-07-06T22:24:32;26.00;43.50
52073;DHT22;38074;51.232;6.826;2022-07-06T22:31:47;26.00;43.60
52073;DHT22;38074;51.232;6.826;2022-07-06T22:39:03;26.00;43.70
52073;DHT22;38074;51.232;6.826;2022-07-06T22:46:19;26.00;43.80
52073;DHT22;38074;51.232;6.826;2022-07-06T22:53:35;26.00;43.80
52073;DHT22;38074;51.232;6.826;2022-07-06T23:00:51;26.00;43.80
52073;DHT22;38074;51.232;6.826;2022-07-06T23:08:07;26.00;43.80
52073;DHT22;38074;51.232;6.826;2022-07-06T23:15:22;26.00;43.80
52073;DHT22;38074;51.232;6.826;2022-07-06T23:22:40;26.00;43.80
52073;DHT22;38074;51.232;6.826;2022-07-06T23:29:55;26.00;44.00
52073;DHT22;38074;51.232;6.826;2022-07-06T23:37:11;26.00;44.00
52073;DHT22;38074;51.232;6.826;2022-07-06T23:44:27;26.00;44.10
52073;DHT22;38074;51.232;6.826;2022-07-06T23:51:42;26.10;44.40
52073;DHT22;38074;51.232;6.826;2022-07-06T23:58:59;26.00;44.40
